Time;durP1;ratioP1;P1;durP2;ratioP2;P2;SDS_P1;SDS_P2;PMS_P1;PMS_P2;Temp;Humidity;BMP_temperature;BMP_pressure;BME280_temperature;BME280_humidity;BME280_pressure;Samples;Min_cycle;Max_cycle;Signal;HPM_P1;HPM_P2
2023/05/30 00:02:04;;;;;;;17.48;3.67;;;;;;;11.10;71.46;102464.50;5063441;28;20127;-77
2023/05/30 00:04:30;;;;;;;19.48;3.72;;;;;;;11.12;71.72;102456.34;5071303;28;20581;-77
2023/05/30 00:06:55;;;;;;;22.77;3.97;;;;;;;11.08;73.03;102466.38;5078021;28;20043;-77
2023/05/30 00:09:20;;;;;;;14.32;3.40;;;;;;;11.04;72.87;102462.13;5075257;28;20105;-77
2023/05/30 00:11:46;;;;;;;17.00;3.47;;;;;;;11.04;72.21;102474.69;5069226;28;20085;-77
2023/05/30 00:14:11;;;;;;;19.00;4.43;;;;;;;10.98;72.84;102475.84;5073276;28;20103;-77
2023/05/30 00:16:38;;;;;;;16.38;3.45;;;;;;;10.96;73.00;102469.69;5076013;28;20028;-77
2023/05/30 00:19:04;;;;;;;24.70;4.97;;;;;;;10.91;73.80;102477.09;5076988;28;20054;-77
2023/05/30 00:21:31;;;;;;;18.30;4.28;;;;;;;10.88;73.80;102474.56;5075636;28;20028;-77
2023/05/30 00:23:56;;;;;;;26.10;3.60;;;;;;;10.88;74.30;102469.16;5071099;28;20073;-77
2023/05/30 00:26:22;;;;;;;20.98;3.83;;;;;;;10.82;74.12;102464.97;5075901;28;20028;-77
2023/05/30 00:28:47;;;;;;;17.05;4.03;;;;;;;10.74;75.25;102462.66;5076151;28;20025;-77
2023/05/30 00:31:12;;;;;;;20.25;4.13;;;;;;;10.75;75.47;102474.28;5073943;28;20476;-77
2023/05/30 00:33:38;;;;;;;16.17;3.50;;;;;;;10.73;75.25;102477.06;5069172;28;20093;-77
2023/05/30 00:36:03;;;;;;;18.02;3.75;;;;;;;10.69;75.34;102472.78;5073820;28;20033;-76
2023/05/30 00:38:29;;;;;;;23.20;3.85;;;;;;;10.69;75.32;102472.78;5073550;28;20063;-77
2023/05/30 00:40:54;;;;;;;14.70;3.35;;;;;;;10.65;75.47;102479.22;5070799;28;20051;-77
2023/05/30 00:43:19;;;;;;;20.27;4.85;;;;;;;10.61;76.66;102477.63;5068071;28;20043;-77
2023/05/30 00:45:49;;;;;;;23.20;4.43;;;;;;;10.55;76.47;102472.53;5075950;28;20032;-77
2023/05/30 00:48:14;;;;;;;15.73;3.67;;;;;;;10.52;76.38;102478.06;5072923;28;20536;-77
2023/05/30 00:50:40;;;;;;;18.88;3.60;;;;;;;10.46;76.71;102485.47;5076559;28;20112;-77
2023/05/30 00:53:06;;;;;;;20.77;4.63;;;;;;;10.40;77.19;102487.59;5070506;28;20024;-76
2023/05/30 00:55:32;;;;;;;18.15;4.40;;;;;;;10.35;77.81;102493.16;5079776;28;20048;-77
2023/05/30 00:57:57;;;;;;;13.98;3.45;;;;;;;10.27;78.59;102490.78;5080850;28;20019;-77
2023/05/30 01:00:26;;;;;;;25.38;5.03;;;;;;;10.22;78.66;102487.44;5075601;28;20036;-77
2023/05/30 01:02:51;;;;;;;17.95;4.03;;;;;;;10.19;79.04;102484.00;5069128;28;20020;-77
2023/05/30 01:05:17;;;;;;;17.92;4.13;;;;;;;10.19;78.86;102484.00;5081322;28;20112;-77
2023/05/30 01:07:44;;;;;;;14.85;4.05;;;;;;;10.11;79.11;102487.91;5095838;28;20036;-76
2023/05/30 01:10:15;;;;;;;18.55;4.25;;;;;;;10.07;79.42;102489.03;5105147;28;20069;-77
2023/05/30 01:13:25;;;;;;;15.50;3.95;;;;;;;10.10;79.01;102488.00;5079620;28;20111;-77
2023/05/30 01:16:03;;;;;;;19.23;4.22;;;;;;;10.02;79.41;102484.78;5083026;28;20039;-77
2023/05/30 01:18:38;;;;;;;17.80;4.53;;;;;;;9.94;79.83;102485.13;5095337;28;20035;-76
2023/05/30 01:21:11;;;;;;;22.25;4.18;;;;;;;9.83;80.52;102480.22;5093463;28;20024;-76
2023/05/30 01:23:43;;;;;;;12.25;3.15;;;;;;;9.79;80.98;102481.28;5081165;28;20103;-76
2023/05/30 01:26:53;;;;;;;17.30;4.35;;;;;;;9.76;80.87;102479.59;5099964;28;20088;-77
2023/05/30 01:29:23;;;;;;;13.07;3.30;;;;;;;9.73;81.50;102481.56;5003055;28;20037;-77
2023/05/30 01:31:49;;;;;;;26.55;5.50;;;;;;;9.71;81.21;102475.41;5019629;28;20043;-76
2023/05/30 01:34:15;;;;;;;16.55;4.07;;;;;;;9.69;81.44;102478.13;5020867;28;20080;-77
2023/05/30 01:36:40;;;;;;;21.05;4.63;;;;;;;9.69;81.88;102480.81;5018651;28;20041;-77
2023/05/30 01:39:06;;;;;;;15.95;4.18;;;;;;;9.62;82.27;102487.41;5023680;28;20134;-76
2023/05/30 01:41:46;;;;;;;20.83;4.53;;;;;;;9.57;82.49;102487.59;5025557;28;20043;-76
2023/05/30 01:44:25;;;;;;;17.75;4.75;;;;;;;9.56;82.79;102476.91;5014268;28;20140;-76
2023/05/30 01:47:27;;;;;;;21.95;4.10;;;;;;;9.64;81.53;102485.53;5016380;28;20052;-76
2023/05/30 01:50:26;;;;;;;24.05;4.35;;;;;;;9.60;81.33;102489.28;5009658;28;20104;-76
2023/05/30 01:53:01;;;;;;;14.60;4.32;;;;;;;9.42;82.95;102499.84;4978457;28;20067;-76
2023/05/30 01:55:30;;;;;;;14.88;3.67;;;;;;;9.42;83.74;102502.53;5020361;28;20128;-77
2023/05/30 01:57:56;;;;;;;17.63;4.10;;;;;;;9.43;83.33;102501.59;5018509;28;20068;-76
2023/05/30 02:00:23;;;;;;;18.42;4.18;;;;;;;9.36;83.98;102500.13;4997103;28;20304;-77
2023/05/30 02:02:48;;;;;;;14.85;3.80;;;;;;;9.33;84.42;102500.25;5014723;28;20029;-76
2023/05/30 02:05:13;;;;;;;14.85;4.10;;;;;;;9.33;83.83;102507.44;5047947;28;20543;-77
2023/05/30 02:07:39;;;;;;;16.92;4.60;;;;;;;9.29;84.47;102503.13;5039419;28;20047;-76
2023/05/30 02:10:05;;;;;;;18.33;4.78;;;;;;;9.29;84.43;102509.34;5026742;28;20024;-77
2023/05/30 02:12:30;;;;;;;15.82;4.07;;;;;;;9.26;84.76;102517.53;5024748;28;20060;-76
2023/05/30 02:14:56;;;;;;;21.40;4.68;;;;;;;9.29;84.83;102516.53;5043294;28;20523;-76
2023/05/30 02:17:21;;;;;;;17.58;3.88;;;;;;;9.28;85.03;102515.66;5026576;28;20035;-77
2023/05/30 02:19:50;;;;;;;20.20;4.53;;;;;;;9.25;84.98;102515.78;5045251;28;20114;-76
2023/05/30 02:22:17;;;;;;;15.35;4.35;;;;;;;9.16;85.12;102514.34;5031188;28;20500;-76
2023/05/30 02:24:42;;;;;;;15.70;4.10;;;;;;;9.17;85.13;102512.56;5047748;28;20036;-76
2023/05/30 02:27:08;;;;;;;19.65;4.28;;;;;;;9.17;85.44;102512.56;5087536;28;20047;-76
2023/05/30 02:29:34;;;;;;;21.92;4.20;;;;;;;9.19;84.84;102513.34;5102377;28;20033;-77
2023/05/30 02:31:59;;;;;;;21.60;4.45;;;;;;;9.24;85.11;102514.06;5074679;28;20070;-76
2023/05/30 02:34:25;;;;;;;20.95;4.75;;;;;;;9.21;85.19;102511.47;5075645;28;20039;-76
2023/05/30 02:36:50;;;;;;;18.25;4.32;;;;;;;9.22;84.70;102515.91;5076996;28;20020;-76
2023/05/30 02:39:15;;;;;;;24.23;4.70;;;;;;;9.19;85.04;102508.00;5097170;28;20118;-76
2023/05/30 02:41:41;;;;;;;19.20;4.28;;;;;;;9.20;84.98;102507.06;5095199;28;20360;-76
2023/05/30 02:44:06;;;;;;;13.40;4.30;;;;;;;9.17;85.40;102508.06;5076372;28;20077;-76
2023/05/30 02:46:33;;;;;;;18.92;4.70;;;;;;;9.18;85.09;102504.44;5079149;28;20038;-76
2023/05/30 02:48:59;;;;;;;21.60;4.55;;;;;;;9.15;85.64;102509.03;5081620;28;20054;-76
2023/05/30 02:51:25;;;;;;;17.20;4.85;;;;;;;9.15;86.07;102499.22;5090513;28;20486;-76
2023/05/30 02:53:50;;;;;;;22.45;4.78;;;;;;;9.13;85.70;102502.88;5072750;28;20077;-76
2023/05/30 02:56:16;;;;;;;22.63;5.47;;;;;;;9.14;85.52;102501.97;5071850;28;20483;-76
2023/05/30 02:58:41;;;;;;;17.27;5.05;;;;;;;9.10;85.68;102502.06;5072540;28;20115;-76
2023/05/30 03:01:07;;;;;;;18.00;4.22;;;;;;;9.13;85.49;102498.38;5066171;28;20106;-77
2023/05/30 03:03:34;;;;;;;23.90;5.07;;;;;;;9.09;85.69;102494.06;5070178;28;20107;-76
2023/05/30 03:06:01;;;;;;;16.40;4.00;;;;;;;9.07;85.86;102494.13;5084399;28;20111;-76
2023/05/30 03:08:28;;;;;;;17.30;4.60;;;;;;;9.04;86.54;102496.94;5105403;28;20059;-76
2023/05/30 03:10:54;;;;;;;21.48;5.00;;;;;;;9.01;86.68;102491.69;5094348;28;20081;-76
2023/05/30 03:13:19;;;;;;;29.23;5.00;;;;;;;9.03;86.11;102497.88;5072101;28;20480;-76
2023/05/30 03:15:45;;;;;;;17.30;4.43;;;;;;;9.01;86.86;102502.44;5101851;28;20092;-76
2023/05/30 03:18:10;;;;;;;21.02;5.20;;;;;;;9.02;86.57;102505.97;5080591;28;20036;-76
2023/05/30 03:20:36;;;;;;;19.42;4.47;;;;;;;9.05;86.69;102505.88;5078485;28;20028;-76
2023/05/30 03:23:02;;;;;;;16.50;4.65;;;;;;;9.03;86.61;102511.28;5081627;28;20072;-76
2023/05/30 03:25:27;;;;;;;23.50;5.80;;;;;;;9.03;86.81;102522.00;5097702;28;20097;-76
2023/05/30 03:27:52;;;;;;;20.85;5.20;;;;;;;9.06;86.72;102521.00;5078163;28;20078;-76
2023/05/30 03:30:22;;;;;;;19.00;5.03;;;;;;;9.07;87.99;102515.59;5101607;28;20333;-76
2023/05/30 03:32:48;;;;;;;24.25;5.13;;;;;;;9.13;87.93;102518.97;5099712;28;20478;-76
2023/05/30 03:35:14;;;;;;;17.48;5.15;;;;;;;9.16;87.42;102529.56;5100917;28;20512;-76
2023/05/30 03:37:39;;;;;;;22.17;5.85;;;;;;;9.22;88.22;102523.97;5080194;28;20024;-76
2023/05/30 03:40:05;;;;;;;17.35;5.78;;;;;;;9.26;88.40;102526.44;5075351;28;20058;-76
2023/05/30 03:42:31;;;;;;;19.90;5.45;;;;;;;9.30;87.87;102535.25;5071385;28;20019;-76
2023/05/30 03:44:56;;;;;;;17.83;4.55;;;;;;;9.33;88.12;102537.81;5084176;28;20031;-76
2023/05/30 03:47:21;;;;;;;22.35;5.22;;;;;;;9.39;87.38;102539.38;5081180;28;20038;-76
2023/05/30 03:49:47;;;;;;;23.48;5.25;;;;;;;9.45;88.04;102539.13;5075660;28;20043;-76
2023/05/30 03:52:12;;;;;;;15.45;5.05;;;;;;;9.45;87.66;102545.34;5092826;28;20332;-76
2023/05/30 03:54:37;;;;;;;17.02;4.35;;;;;;;9.47;87.12;102547.09;5080987;28;20023;-76
2023/05/30 03:57:03;;;;;;;23.50;5.22;;;;;;;9.48;88.15;102547.03;5080100;28;20108;-76
2023/05/30 03:59:28;;;;;;;21.52;5.07;;;;;;;9.48;87.70;102546.16;5074197;28;20769;-76
2023/05/30 04:01:54;;;;;;;19.17;5.05;;;;;;;9.48;87.73;102544.34;5064126;28;20024;-76
2023/05/30 04:04:19;;;;;;;21.90;5.13;;;;;;;9.48;87.47;102549.72;5072208;28;20024;-76
2023/05/30 04:06:45;;;;;;;19.73;5.40;;;;;;;9.51;87.93;102546.91;5080411;28;20094;-76
2023/05/30 04:09:10;;;;;;;23.20;5.38;;;;;;;9.52;87.49;102550.47;5069114;28;20391;-77
2023/05/30 04:11:36;;;;;;;26.30;6.22;;;;;;;9.54;88.06;102549.47;5076182;28;20064;-76
2023/05/30 04:14:01;;;;;;;18.83;6.03;;;;;;;9.56;87.85;102552.97;5075106;28;20066;-76
2023/05/30 04:16:26;;;;;;;21.65;5.32;;;;;;;9.60;88.14;102549.22;5076636;28;20072;-77
2023/05/30 04:18:51;;;;;;;23.40;5.55;;;;;;;9.60;87.57;102549.22;5067618;28;20075;-76
2023/05/30 04:21:17;;;;;;;21.13;4.78;;;;;;;9.64;88.11;102549.09;5078270;28;20070;-76
2023/05/30 04:23:42;;;;;;;20.92;5.45;;;;;;;9.71;88.49;102547.91;5083736;28;20525;-76
2023/05/30 04:26:09;;;;;;;23.90;6.43;;;;;;;9.72;87.75;102546.94;5071189;28;20059;-76
2023/05/30 04:28:44;;;;;;;19.23;5.57;;;;;;;9.73;88.22;102554.06;5078965;28;20023;-76
2023/05/30 04:31:10;;;;;;;20.58;5.65;;;;;;;9.77;88.68;102545.81;5068019;28;20097;-76
2023/05/30 04:33:37;;;;;;;21.13;5.32;;;;;;;9.81;88.54;102541.19;5076863;28;20054;-76
2023/05/30 04:36:08;;;;;;;22.50;6.03;;;;;;;9.88;87.98;102542.69;5074312;28;20368;-76
2023/05/30 04:38:34;;;;;;;21.92;5.93;;;;;;;9.96;87.91;102555.78;5073195;28;20024;-76
2023/05/30 04:41:02;;;;;;;20.25;5.63;;;;;;;10.01;87.30;102551.06;5077741;28;20017;-76
2023/05/30 04:43:30;;;;;;;25.35;6.55;;;;;;;10.05;87.42;102550.00;5085614;28;20060;-76
2023/05/30 04:45:58;;;;;;;19.23;5.18;;;;;;;10.11;87.84;102552.41;5078917;28;20020;-77
2023/05/30 04:48:24;;;;;;;24.77;5.93;;;;;;;10.16;87.36;102546.81;5070324;28;20047;-76
2023/05/30 04:50:49;;;;;;;21.33;5.97;;;;;;;10.20;87.54;102547.56;5069188;28;20036;-76
2023/05/30 04:53:15;;;;;;;27.85;6.43;;;;;;;10.29;86.67;102547.16;5078565;28;20443;-76
2023/05/30 04:55:43;;;;;;;22.05;6.20;;;;;;;10.32;87.60;102541.63;5083549;28;20047;-76
2023/05/30 04:58:09;;;;;;;19.92;5.43;;;;;;;10.38;86.47;102541.41;5079823;28;20032;-76
2023/05/30 05:00:36;;;;;;;21.88;6.15;;;;;;;10.41;86.01;102540.38;5073063;28;20480;-77
2023/05/30 05:03:02;;;;;;;19.35;5.40;;;;;;;10.43;86.13;102544.75;5065942;28;20425;-76
2023/05/30 05:05:27;;;;;;;24.85;6.95;;;;;;;10.47;86.21;102550.88;5076778;28;20024;-76
2023/05/30 05:07:52;;;;;;;21.75;5.90;;;;;;;10.50;86.07;102542.66;5080069;28;20075;-76
2023/05/30 05:10:18;;;;;;;19.23;5.55;;;;;;;10.54;85.74;102540.69;5069858;28;20033;-77
2023/05/30 05:12:44;;;;;;;18.95;5.25;;;;;;;10.57;86.13;102545.91;5067253;28;20107;-76
2023/05/30 05:15:10;;;;;;;24.25;6.95;;;;;;;10.61;85.78;102544.84;5068256;28;20108;-76
2023/05/30 05:17:36;;;;;;;21.02;5.22;;;;;;;10.63;86.85;102541.16;5074711;28;20070;-76
2023/05/30 05:20:02;;;;;;;18.20;5.45;;;;;;;10.64;85.53;102536.63;5069327;28;20184;-76
2023/05/30 05:22:27;;;;;;;21.33;5.35;;;;;;;10.67;85.00;102547.25;5069217;28;20550;-76
2023/05/30 05:24:53;;;;;;;22.73;6.10;;;;;;;10.72;84.82;102544.34;5077179;28;20149;-76
2023/05/30 05:27:18;;;;;;;20.70;6.45;;;;;;;10.75;84.51;102545.09;5070798;28;20032;-77
2023/05/30 05:29:43;;;;;;;21.75;5.78;;;;;;;10.78;83.98;102544.94;5069125;28;20111;-76
2023/05/30 05:32:09;;;;;;;22.00;5.78;;;;;;;10.81;84.32;102538.53;5076857;28;20032;-76
2023/05/30 05:34:37;;;;;;;22.08;6.10;;;;;;;10.82;84.37;102549.22;5067837;28;20449;-76
2023/05/30 05:37:02;;;;;;;21.42;6.22;;;;;;;10.86;83.38;102549.09;5067940;28;20047;-76
2023/05/30 05:39:28;;;;;;;25.23;6.55;;;;;;;10.89;84.51;102540.88;5071089;28;20476;-77
2023/05/30 05:41:53;;;;;;;21.70;6.03;;;;;;;10.94;84.05;102550.47;5065537;28;20016;-76
2023/05/30 05:44:18;;;;;;;24.25;5.72;;;;;;;11.01;84.70;102546.53;5067869;28;20502;-77
2023/05/30 05:46:43;;;;;;;17.88;5.32;;;;;;;11.05;82.93;102547.25;5071090;28;20024;-76
2023/05/30 05:49:09;;;;;;;21.85;5.82;;;;;;;11.09;83.37;102548.00;5073214;28;20024;-77
2023/05/30 05:51:36;;;;;;;20.33;6.50;;;;;;;11.14;83.29;102551.31;5068793;28;20025;-76
2023/05/30 05:54:02;;;;;;;20.25;5.90;;;;;;;11.18;84.00;102548.38;5065023;28;20468;-77
2023/05/30 05:56:27;;;;;;;22.15;6.50;;;;;;;11.24;82.40;102551.75;5069209;28;20131;-77
2023/05/30 05:58:52;;;;;;;22.00;6.60;;;;;;;11.23;82.08;102564.34;5072248;28;20027;-76
2023/05/30 06:01:17;;;;;;;27.55;6.93;;;;;;;11.27;83.67;102554.28;5065183;28;20016;-77
2023/05/30 06:03:43;;;;;;;25.77;6.38;;;;;;;11.31;82.11;102561.28;5071788;28;20493;-76
2023/05/30 06:06:08;;;;;;;23.17;6.60;;;;;;;11.34;82.06;102558.41;5083214;28;20503;-77
2023/05/30 06:08:33;;;;;;;32.10;7.13;;;;;;;11.35;81.92;102562.88;5071060;28;20017;-76
2023/05/30 06:10:59;;;;;;;27.15;7.43;;;;;;;11.36;81.63;102565.47;5077381;28;20036;-76
2023/05/30 06:13:24;;;;;;;23.77;6.35;;;;;;;11.37;81.70;102559.13;5068818;28;20020;-77
2023/05/30 06:15:53;;;;;;;23.42;6.00;;;;;;;11.39;80.88;102567.16;5086398;28;20074;-77
2023/05/30 06:18:18;;;;;;;24.48;6.32;;;;;;;11.40;81.08;102568.88;5079847;28;20444;-77
2023/05/30 06:20:43;;;;;;;21.92;5.47;;;;;;;11.43;80.92;102560.66;5069634;28;20085;-77
2023/05/30 06:23:08;;;;;;;24.13;6.20;;;;;;;11.47;80.53;102556.00;5068999;28;20071;-77
2023/05/30 06:25:34;;;;;;;21.50;6.72;;;;;;;11.53;81.59;102556.56;5068142;28;20071;-77
2023/05/30 06:27:59;;;;;;;23.58;6.72;;;;;;;11.58;80.20;102569.81;5078485;28;20048;-77
2023/05/30 06:30:25;;;;;;;20.50;5.95;;;;;;;11.59;80.66;102570.66;5070172;28;20032;-77
2023/05/30 06:32:50;;;;;;;21.83;5.85;;;;;;;11.64;80.38;102571.28;5077820;28;20039;-77
2023/05/30 06:35:15;;;;;;;22.33;7.43;;;;;;;11.68;79.29;102563.00;5075104;28;20086;-77
2023/05/30 06:37:41;;;;;;;27.92;7.13;;;;;;;11.73;79.07;102560.06;5077573;28;20024;-78
2023/05/30 06:40:07;;;;;;;24.00;5.90;;;;;;;11.79;80.14;102565.16;5062823;28;20484;-77
2023/05/30 06:42:34;;;;;;;21.13;6.75;;;;;;;11.84;80.41;102557.69;5059546;28;20033;-77
2023/05/30 06:44:59;;;;;;;19.70;6.97;;;;;;;11.88;79.94;102567.34;5076246;28;20016;-77
2023/05/30 06:47:25;;;;;;;23.55;7.53;;;;;;;11.97;80.59;102562.50;5079911;28;20023;-77
2023/05/30 06:49:50;;;;;;;22.00;6.43;;;;;;;12.02;79.98;102561.31;5080191;28;20063;-77
2023/05/30 06:52:15;;;;;;;21.15;7.30;;;;;;;12.11;80.24;102565.34;5079914;28;20087;-78
2023/05/30 06:54:40;;;;;;;21.88;7.07;;;;;;;12.19;78.47;102565.78;5073518;28;20036;-77
2023/05/30 06:57:06;;;;;;;18.65;6.07;;;;;;;12.24;79.14;102557.50;5090930;28;21903;-77
2023/05/30 06:59:33;;;;;;;18.90;6.30;;;;;;;12.30;78.35;102569.75;5097992;28;20070;-77
2023/05/30 07:01:58;;;;;;;19.73;5.95;;;;;;;12.33;77.66;102572.28;5080656;28;20050;-77
2023/05/30 07:04:24;;;;;;;25.90;6.70;;;;;;;12.36;76.69;102586.47;5082186;28;20071;-77
2023/05/30 07:06:49;;;;;;;25.55;7.22;;;;;;;12.32;77.14;102573.25;5084437;28;20061;-77
2023/05/30 07:09:15;;;;;;;19.63;6.78;;;;;;;12.32;78.88;102582.19;5077112;28;20024;-77
2023/05/30 07:11:40;;;;;;;17.92;6.43;;;;;;;12.39;78.39;102572.84;5090841;28;20063;-73
2023/05/30 07:14:05;;;;;;;21.38;6.47;;;;;;;12.55;80.77;102577.41;5078055;28;20054;-78
2023/05/30 07:16:31;;;;;;;21.88;6.47;;;;;;;12.64;79.12;102584.13;5073765;28;20383;-77
2023/05/30 07:18:56;;;;;;;17.00;5.97;;;;;;;12.69;75.49;102582.91;5083436;28;20053;-78
2023/05/30 07:21:22;;;;;;;21.13;6.50;;;;;;;12.72;75.51;102581.88;5101507;28;20061;-78
2023/05/30 07:23:47;;;;;;;19.25;6.85;;;;;;;12.72;75.40;102581.88;5090560;28;20036;-78
2023/05/30 07:26:12;;;;;;;19.70;6.80;;;;;;;12.67;75.97;102578.56;5096943;28;20111;-78
2023/05/30 07:28:38;;;;;;;23.52;6.85;;;;;;;12.64;74.28;102578.75;5099101;28;20081;-79
2023/05/30 07:31:03;;;;;;;17.58;6.13;;;;;;;12.62;73.93;102586.03;5084229;28;20552;-78
2023/05/30 07:33:28;;;;;;;20.52;7.00;;;;;;;12.58;75.28;102577.25;5083370;28;20080;-77
2023/05/30 07:35:53;;;;;;;20.52;6.95;;;;;;;12.57;73.43;102589.84;5103411;28;20059;-78
2023/05/30 07:38:19;;;;;;;24.73;7.13;;;;;;;12.58;75.40;102591.59;5081749;28;20049;-78
2023/05/30 07:40:44;;;;;;;23.38;6.25;;;;;;;12.67;74.82;102592.06;5076066;28;20110;-78
2023/05/30 07:43:09;;;;;;;22.88;6.35;;;;;;;12.84;76.39;102592.00;5100674;28;20483;-78
2023/05/30 07:45:35;;;;;;;19.35;6.70;;;;;;;13.01;76.07;102593.75;5075127;28;20495;-78
2023/05/30 07:48:00;;;;;;;26.70;7.53;;;;;;;13.16;73.11;102593.84;5097096;28;20495;-78
2023/05/30 07:50:25;;;;;;;22.25;7.38;;;;;;;13.24;74.41;102584.38;5083046;28;20070;-79
2023/05/30 07:52:51;;;;;;;19.40;6.88;;;;;;;13.36;74.08;102590.06;5078218;28;20432;-77
2023/05/30 07:55:16;;;;;;;20.42;6.50;;;;;;;13.47;74.76;102584.94;5081839;28;20040;-78
2023/05/30 07:57:41;;;;;;;25.65;6.65;;;;;;;13.56;74.57;102578.13;5083359;28;20067;-78
2023/05/30 08:00:08;;;;;;;22.67;7.55;;;;;;;13.51;72.09;102580.19;5098712;28;20049;-79
2023/05/30 08:02:34;;;;;;;22.85;6.75;;;;;;;13.43;72.65;102583.34;5079657;28;20126;-77
2023/05/30 08:04:59;;;;;;;21.48;7.32;;;;;;;13.32;70.70;102575.81;5100743;28;20038;-77
2023/05/30 08:07:25;;;;;;;19.45;6.55;;;;;;;13.26;71.23;102576.19;5076959;28;20028;-77
2023/05/30 08:09:50;;;;;;;26.10;7.60;;;;;;;13.19;71.65;102586.47;5082346;28;20136;-77
2023/05/30 08:12:17;;;;;;;23.65;6.45;;;;;;;13.14;71.70;102577.75;5071828;28;20017;-77
2023/05/30 08:14:43;;;;;;;18.00;6.13;;;;;;;13.12;70.99;102574.28;5101926;28;20039;-76
2023/05/30 08:17:11;;;;;;;20.67;6.93;;;;;;;13.17;72.15;102577.56;5084122;28;20057;-77
2023/05/30 08:19:36;;;;;;;23.17;7.18;;;;;;;13.30;70.57;102577.75;5083076;28;20015;-77
2023/05/30 08:22:02;;;;;;;23.02;6.45;;;;;;;13.45;71.59;102570.63;5099397;28;20059;-78
2023/05/30 08:24:28;;;;;;;24.50;6.70;;;;;;;13.54;73.23;102570.06;5077399;28;20028;-78
2023/05/30 08:26:53;;;;;;;19.77;6.88;;;;;;;13.59;72.00;102573.41;5101092;28;20024;-78
2023/05/30 08:29:19;;;;;;;19.20;6.50;;;;;;;13.67;71.19;102578.34;5084133;28;20054;-77
2023/05/30 08:31:45;;;;;;;22.17;7.00;;;;;;;13.73;68.99;102569.88;5101521;28;20093;-77
2023/05/30 08:34:10;;;;;;;19.30;6.47;;;;;;;13.85;70.75;102571.00;5080336;28;20107;-77
2023/05/30 08:36:36;;;;;;;20.45;7.53;;;;;;;13.97;70.94;102569.38;5080802;28;20020;-78
2023/05/30 08:39:02;;;;;;;23.77;6.75;;;;;;;14.03;70.26;102565.44;5082348;28;20066;-77
2023/05/30 08:41:27;;;;;;;18.02;6.00;;;;;;;14.10;69.60;102564.09;5083909;28;20047;-78
2023/05/30 08:43:53;;;;;;;23.02;6.70;;;;;;;14.15;67.33;102559.28;5084477;28;20533;-77
2023/05/30 08:46:19;;;;;;;20.38;6.53;;;;;;;14.22;68.46;102559.78;5072308;28;20441;-77
2023/05/30 08:48:45;;;;;;;24.08;6.88;;;;;;;14.30;72.12;102560.16;5080963;28;20019;-78
2023/05/30 08:51:13;;;;;;;21.52;6.93;;;;;;;14.28;69.03;102554.84;5081928;28;20043;-78
2023/05/30 08:53:45;;;;;;;28.80;7.90;;;;;;;14.32;69.20;102553.69;5101885;28;20088;-77
2023/05/30 08:56:36;;;;;;;21.13;6.63;;;;;;;14.37;68.39;102550.69;5100662;28;20052;-78
2023/05/30 08:59:02;;;;;;;22.10;7.50;;;;;;;14.38;67.44;102552.44;5083148;28;20055;-78
2023/05/30 09:01:29;;;;;;;23.15;7.30;;;;;;;14.44;67.26;102552.06;5089457;28;20529;-77
2023/05/30 09:03:56;;;;;;;21.10;6.68;;;;;;;14.43;69.41;102557.56;5081667;28;20107;-78
2023/05/30 09:06:23;;;;;;;20.70;6.35;;;;;;;14.47;69.65;102559.13;5099481;28;20039;-78
2023/05/30 09:08:51;;;;;;;21.13;7.13;;;;;;;14.45;65.59;102542.09;5083652;28;20030;-77
2023/05/30 09:11:18;;;;;;;20.92;6.32;;;;;;;14.48;67.72;102550.03;5086024;28;20039;-78
2023/05/30 09:13:43;;;;;;;18.45;6.55;;;;;;;14.51;68.78;102547.16;5084436;28;20016;-78
2023/05/30 09:16:09;;;;;;;25.98;7.45;;;;;;;14.57;69.35;102548.56;5101165;28;20403;-78
2023/05/30 09:18:34;;;;;;;20.60;7.45;;;;;;;14.57;66.99;102549.47;5097178;28;20055;-78
2023/05/30 09:21:01;;;;;;;20.08;6.22;;;;;;;14.61;69.69;102537.53;5087446;28;20031;-78
2023/05/30 09:23:26;;;;;;;22.65;6.80;;;;;;;14.66;69.84;102531.81;5105418;28;20035;-77
2023/05/30 09:25:52;;;;;;;24.50;7.47;;;;;;;14.73;70.36;102533.16;5084519;28;20402;-78
2023/05/30 09:28:25;;;;;;;23.98;7.85;;;;;;;14.76;68.38;102537.47;5091595;28;20114;-77
2023/05/30 09:31:00;;;;;;;23.20;7.60;;;;;;;14.80;67.39;102541.72;5085581;28;20035;-78
2023/05/30 09:33:47;;;;;;;21.15;6.40;;;;;;;14.88;69.30;102538.56;5101751;28;20034;-78
2023/05/30 09:36:18;;;;;;;19.75;6.45;;;;;;;14.80;65.20;102531.78;5076022;28;20028;-78
2023/05/30 09:39:05;;;;;;;20.38;6.78;;;;;;;14.85;68.03;102526.94;5102160;28;20024;-77
2023/05/30 09:41:31;;;;;;;20.88;7.38;;;;;;;14.92;68.50;102527.41;5095824;28;20051;-77
2023/05/30 09:43:57;;;;;;;19.17;6.20;;;;;;;15.04;69.68;102531.16;5102694;28;20084;-78
2023/05/30 09:46:29;;;;;;;24.50;7.38;;;;;;;15.03;66.67;102530.28;5086840;28;20031;-77
2023/05/30 09:48:55;;;;;;;25.60;8.38;;;;;;;15.07;67.03;102530.97;5080504;28;20020;-78
2023/05/30 09:51:22;;;;;;;23.67;7.72;;;;;;;15.08;65.99;102523.69;5116965;28;20042;-78
2023/05/30 09:54:00;;;;;;;21.83;7.68;;;;;;;15.12;68.41;102523.38;5107030;28;20038;-78
2023/05/30 09:56:44;;;;;;;24.77;7.28;;;;;;;15.17;68.47;102525.81;5107424;28;20070;-79
2023/05/30 09:59:13;;;;;;;20.58;8.18;;;;;;;15.23;69.07;102519.09;5128538;28;20084;-79
2023/05/30 10:01:48;;;;;;;21.98;8.43;;;;;;;15.34;70.12;102506.59;5112689;28;20015;-78
2023/05/30 10:04:14;;;;;;;22.52;8.07;;;;;;;15.37;67.97;102516.34;5100522;28;20043;-79
2023/05/30 10:06:42;;;;;;;20.92;7.80;;;;;;;15.39;66.40;102519.84;5093797;28;20028;-78
2023/05/30 10:09:09;;;;;;;25.27;8.30;;;;;;;15.37;63.85;102510.91;5098187;28;20000;-77
2023/05/30 10:11:36;;;;;;;27.17;8.10;;;;;;;15.40;65.35;102512.56;5090572;28;20028;-77
2023/05/30 10:14:01;;;;;;;20.00;6.90;;;;;;;15.44;64.97;102508.69;5103776;28;20550;-77
2023/05/30 10:16:28;;;;;;;22.90;7.70;;;;;;;15.50;65.99;102506.41;5085326;28;20020;-79
2023/05/30 10:18:56;;;;;;;22.88;8.25;;;;;;;15.60;66.40;102505.81;5101906;28;20031;-78
2023/05/30 10:21:22;;;;;;;23.25;8.20;;;;;;;15.60;64.74;102512.06;5068289;28;20016;-78
2023/05/30 10:23:52;;;;;;;17.95;6.63;;;;;;;15.70;67.34;102512.31;5091391;28;20391;-78
2023/05/30 10:26:18;;;;;;;;;;;;;;;15.75;66.54;102517.44;5094626;28;20099;-78
2023/05/30 10:28:46;;;;;;;23.55;8.68;;;;;;;15.76;65.03;102517.31;5076625;28;19969;-78
2023/05/30 10:31:12;;;;;;;35.08;9.27;;;;;;;15.78;63.64;102514.50;5100645;28;20028;-79
2023/05/30 10:33:41;;;;;;;20.77;7.78;;;;;;;15.84;64.09;102505.97;5074866;28;20024;-78
2023/05/30 10:36:06;;;;;;;26.88;8.80;;;;;;;15.89;64.10;102501.97;5107597;28;20080;-78
2023/05/30 10:38:41;;;;;;;20.42;6.97;;;;;;;15.94;66.46;102503.50;5108820;28;20035;-77
2023/05/30 10:41:35;;;;;;;22.67;8.05;;;;;;;15.99;63.83;102496.78;5089045;28;20045;-77
2023/05/30 10:44:22;;;;;;;22.77;8.90;;;;;;;16.04;63.32;102494.59;5089231;28;20456;-78
2023/05/30 10:46:57;;;;;;;23.83;8.02;;;;;;;16.10;64.03;102493.31;5086402;28;20398;-78
2023/05/30 10:49:26;;;;;;;27.05;8.45;;;;;;;16.17;66.22;102493.75;5089523;28;20023;-76
2023/05/30 10:52:01;;;;;;;25.80;7.43;;;;;;;16.15;61.39;102490.25;5108332;28;20039;-75
2023/05/30 10:54:47;;;;;;;21.95;7.85;;;;;;;16.18;63.59;102482.78;5094274;28;20030;-74
2023/05/30 10:57:20;;;;;;;26.55;8.25;;;;;;;16.25;65.24;102475.94;5099754;28;20051;-79
2023/05/30 10:59:46;;;;;;;18.55;6.25;;;;;;;16.28;64.02;102472.13;5117268;28;20076;-72
2023/05/30 11:02:17;;;;;;;21.45;7.72;;;;;;;16.33;62.93;102469.09;5091068;28;20114;-77
2023/05/30 11:04:42;;;;;;;25.42;7.80;;;;;;;16.34;62.50;102469.00;5081855;28;20031;-76
2023/05/30 11:07:10;;;;;;;20.20;7.63;;;;;;;16.41;63.57;102463.97;5105440;28;20486;-77
2023/05/30 11:09:41;;;;;;;24.92;8.07;;;;;;;16.53;64.69;102464.91;5086450;28;20492;-76
2023/05/30 11:12:08;;;;;;;23.40;7.60;;;;;;;16.59;63.32;102475.34;5109270;28;20101;-77
2023/05/30 11:14:35;;;;;;;24.88;8.25;;;;;;;16.67;63.79;102466.66;5091609;28;20027;-77
2023/05/30 11:17:06;;;;;;;21.27;7.35;;;;;;;16.71;64.50;102460.88;5090684;28;20020;-77
2023/05/30 11:19:45;;;;;;;21.48;7.43;;;;;;;16.81;64.72;102466.50;5107262;28;20506;-77
2023/05/30 11:22:15;;;;;;;21.77;7.43;;;;;;;16.83;63.80;102464.53;5096301;28;20041;-77